sensor_id;sensor_type;location;lat;lon;timestamp;P1;durP1;ratioP1;P2;durP2;ratioP2
40511;SDS011;26213;52.446;20.706;2022-11-03T00:00:20;19.33;;;9.05;;
40511;SDS011;26213;52.446;20.706;2022-11-03T00:02:46;21.95;;;9.45;;
40511;SDS011;26213;52.446;20.706;2022-11-03T00:05:11;16.38;;;7.65;;
40511;SDS011;26213;52.446;20.706;2022-11-03T00:07:56;23.92;;;8.52;;
40511;SDS011;26213;52.446;20.706;2022-11-03T00:10:22;19.80;;;8.50;;
40511;SDS011;26213;52.446;20.706;2022-11-03T00:12:47;17.80;;;8.65;;
40511;SDS011;26213;52.446;20.706;2022-11-03T00:15:12;26.67;;;9.68;;
40511;SDS011;26213;52.446;20.706;2022-11-03T00:17:38;18.65;;;8.20;;
40511;SDS011;26213;52.446;20.706;2022-11-03T00:20:03;18.52;;;10.77;;
40511;SDS011;26213;52.446;20.706;2022-11-03T00:22:29;22.55;;;9.30;;
40511;SDS011;26213;52.446;20.706;2022-11-03T00:24:57;14.82;;;8.57;;
40511;SDS011;26213;52.446;20.706;2022-11-03T00:27:22;22.73;;;8.52;;
40511;SDS011;26213;52.446;20.706;2022-11-03T00:29:47;17.52;;;8.00;;
40511;SDS011;26213;52.446;20.706;2022-11-03T00:32:13;18.42;;;8.63;;
40511;SDS011;26213;52.446;20.706;2022-11-03T00:34:38;20.77;;;8.65;;
40511;SDS011;26213;52.446;20.706;2022-11-03T00:37:04;15.80;;;8.60;;
40511;SDS011;26213;52.446;20.706;2022-11-03T00:39:29;17.50;;;7.35;;
40511;SDS011;26213;52.446;20.706;2022-11-03T00:41:55;16.05;;;8.73;;
40511;SDS011;26213;52.446;20.706;2022-11-03T00:44:20;21.58;;;7.40;;
40511;SDS011;26213;52.446;20.706;2022-11-03T00:46:46;23.27;;;8.50;;
40511;SDS011;26213;52.446;20.706;2022-11-03T00:49:11;17.05;;;8.15;;
40511;SDS011;26213;52.446;20.706;2022-11-03T00:51:36;14.00;;;7.63;;
40511;SDS011;26213;52.446;20.706;2022-11-03T00:54:02;16.70;;;7.13;;
40511;SDS011;26213;52.446;20.706;2022-11-03T00:56:30;16.80;;;7.03;;
40511;SDS011;26213;52.446;20.706;2022-11-03T00:58:57;16.35;;;6.90;;
40511;SDS011;26213;52.446;20.706;2022-11-03T01:01:27;20.77;;;7.65;;
40511;SDS011;26213;52.446;20.706;2022-11-03T01:03:55;18.27;;;7.57;;
40511;SDS011;26213;52.446;20.706;2022-11-03T01:06:41;12.63;;;7.55;;
40511;SDS011;26213;52.446;20.706;2022-11-03T01:09:19;14.30;;;6.72;;
40511;SDS011;26213;52.446;20.706;2022-11-03T01:11:56;15.10;;;7.30;;
40511;SDS011;26213;52.446;20.706;2022-11-03T01:14:58;15.57;;;7.03;;
40511;SDS011;26213;52.446;20.706;2022-11-03T01:17:24;17.13;;;6.72;;
40511;SDS011;26213;52.446;20.706;2022-11-03T01:19:50;13.50;;;6.38;;
40511;SDS011;26213;52.446;20.706;2022-11-03T01:22:16;17.95;;;6.82;;
40511;SDS011;26213;52.446;20.706;2022-11-03T01:24:43;14.93;;;7.15;;
40511;SDS011;26213;52.446;20.706;2022-11-03T01:27:09;14.45;;;7.47;;
40511;SDS011;26213;52.446;20.706;2022-11-03T01:29:37;17.88;;;7.68;;
40511;SDS011;26213;52.446;20.706;2022-11-03T01:32:03;18.65;;;6.93;;
40511;SDS011;26213;52.446;20.706;2022-11-03T01:34:28;15.93;;;7.70;;
40511;SDS011;26213;52.446;20.706;2022-11-03T01:36:54;21.67;;;7.35;;
40511;SDS011;26213;52.446;20.706;2022-11-03T01:39:19;17.05;;;8.43;;
40511;SDS011;26213;52.446;20.706;2022-11-03T01:41:46;15.88;;;7.45;;
40511;SDS011;26213;52.446;20.706;2022-11-03T01:46:43;18.88;;;7.15;;
40511;SDS011;26213;52.446;20.706;2022-11-03T01:49:19;14.55;;;6.80;;
40511;SDS011;26213;52.446;20.706;2022-11-03T01:51:51;13.43;;;7.90;;
40511;SDS011;26213;52.446;20.706;2022-11-03T01:54:20;20.20;;;8.00;;
40511;SDS011;26213;52.446;20.706;2022-11-03T01:56:47;11.60;;;6.60;;
40511;SDS011;26213;52.446;20.706;2022-11-03T01:59:15;15.90;;;6.22;;
40511;SDS011;26213;52.446;20.706;2022-11-03T02:01:42;13.20;;;6.40;;
40511;SDS011;26213;52.446;20.706;2022-11-03T02:04:10;13.13;;;6.00;;
40511;SDS011;26213;52.446;20.706;2022-11-03T02:06:41;13.05;;;6.10;;
40511;SDS011;26213;52.446;20.706;2022-11-03T02:09:09;17.48;;;6.03;;
40511;SDS011;26213;52.446;20.706;2022-11-03T02:14:18;12.55;;;4.72;;
40511;SDS011;26213;52.446;20.706;2022-11-03T02:16:46;13.98;;;6.18;;
40511;SDS011;26213;52.446;20.706;2022-11-03T02:27:59;12.90;;;6.20;;
40511;SDS011;26213;52.446;20.706;2022-11-03T02:30:30;14.93;;;6.72;;
40511;SDS011;26213;52.446;20.706;2022-11-03T02:33:04;17.48;;;7.15;;
40511;SDS011;26213;52.446;20.706;2022-11-03T02:35:37;13.80;;;6.90;;
40511;SDS011;26213;52.446;20.706;2022-11-03T02:38:08;14.65;;;7.85;;
40511;SDS011;26213;52.446;20.706;2022-11-03T02:40:37;17.73;;;7.50;;
40511;SDS011;26213;52.446;20.706;2022-11-03T02:43:06;16.20;;;8.02;;
40511;SDS011;26213;52.446;20.706;2022-11-03T02:45:32;16.98;;;8.88;;
40511;SDS011;26213;52.446;20.706;2022-11-03T02:47:58;14.10;;;7.88;;
40511;SDS011;26213;52.446;20.706;2022-11-03T02:50:26;13.77;;;6.97;;
40511;SDS011;26213;52.446;20.706;2022-11-03T02:52:53;15.68;;;7.70;;
40511;SDS011;26213;52.446;20.706;2022-11-03T03:01:05;13.65;;;7.47;;
40511;SDS011;26213;52.446;20.706;2022-11-03T03:03:39;13.15;;;8.00;;
40511;SDS011;26213;52.446;20.706;2022-11-03T03:06:18;15.80;;;8.55;;
40511;SDS011;26213;52.446;20.706;2022-11-03T03:08:49;14.10;;;7.18;;
40511;SDS011;26213;52.446;20.706;2022-11-03T03:11:18;17.95;;;9.32;;
40511;SDS011;26213;52.446;20.706;2022-11-03T03:14:05;18.63;;;8.57;;
40511;SDS011;26213;52.446;20.706;2022-11-03T03:16:42;20.48;;;9.50;;
40511;SDS011;26213;52.446;20.706;2022-11-03T03:21:53;15.27;;;8.80;;
40511;SDS011;26213;52.446;20.706;2022-11-03T03:27:06;20.23;;;8.95;;
40511;SDS011;26213;52.446;20.706;2022-11-03T03:29:39;19.70;;;8.48;;
40511;SDS011;26213;52.446;20.706;2022-11-03T03:32:18;20.17;;;9.48;;
40511;SDS011;26213;52.446;20.706;2022-11-03T03:34:45;13.77;;;8.75;;
40511;SDS011;26213;52.446;20.706;2022-11-03T03:37:11;16.92;;;8.98;;
40511;SDS011;26213;52.446;20.706;2022-11-03T03:39:38;18.63;;;9.40;;
40511;SDS011;26213;52.446;20.706;2022-11-03T03:42:06;19.80;;;10.30;;
40511;SDS011;26213;52.446;20.706;2022-11-03T03:44:33;20.45;;;10.32;;
40511;SDS011;26213;52.446;20.706;2022-11-03T03:47:03;16.63;;;10.20;;
40511;SDS011;26213;52.446;20.706;2022-11-03T03:49:31;18.98;;;9.60;;
40511;SDS011;26213;52.446;20.706;2022-11-03T03:51:56;16.45;;;9.88;;
40511;SDS011;26213;52.446;20.706;2022-11-03T03:54:22;20.38;;;9.63;;
40511;SDS011;26213;52.446;20.706;2022-11-03T03:59:22;22.73;;;10.80;;
40511;SDS011;26213;52.446;20.706;2022-11-03T04:01:48;17.10;;;9.57;;
40511;SDS011;26213;52.446;20.706;2022-11-03T04:04:13;20.52;;;11.23;;
40511;SDS011;26213;52.446;20.706;2022-11-03T04:06:39;17.50;;;10.45;;
40511;SDS011;26213;52.446;20.706;2022-11-03T04:09:04;31.10;;;13.73;;
40511;SDS011;26213;52.446;20.706;2022-11-03T04:11:30;33.25;;;22.10;;
40511;SDS011;26213;52.446;20.706;2022-11-03T04:14:13;49.28;;;33.85;;
40511;SDS011;26213;52.446;20.706;2022-11-03T04:16:57;54.85;;;37.28;;
40511;SDS011;26213;52.446;20.706;2022-11-03T04:20:01;46.85;;;33.00;;
40511;SDS011;26213;52.446;20.706;2022-11-03T04:22:46;31.15;;;19.75;;
40511;SDS011;26213;52.446;20.706;2022-11-03T04:25:11;22.98;;;15.60;;
40511;SDS011;26213;52.446;20.706;2022-11-03T04:27:37;19.08;;;11.32;;
40511;SDS011;26213;52.446;20.706;2022-11-03T04:32:34;26.58;;;18.75;;
40511;SDS011;26213;52.446;20.706;2022-11-03T04:35:00;27.98;;;18.10;;
40511;SDS011;26213;52.446;20.706;2022-11-03T04:37:26;24.45;;;14.88;;
40511;SDS011;26213;52.446;20.706;2022-11-03T04:40:01;19.45;;;12.00;;
40511;SDS011;26213;52.446;20.706;2022-11-03T04:42:30;23.85;;;10.95;;
40511;SDS011;26213;52.446;20.706;2022-11-03T04:44:57;22.65;;;14.00;;
40511;SDS011;26213;52.446;20.706;2022-11-03T04:47:25;30.98;;;18.30;;
40511;SDS011;26213;52.446;20.706;2022-11-03T04:49:50;23.70;;;15.88;;
40511;SDS011;26213;52.446;20.706;2022-11-03T04:52:17;28.23;;;18.08;;
40511;SDS011;26213;52.446;20.706;2022-11-03T04:54:44;21.70;;;14.35;;
40511;SDS011;26213;52.446;20.706;2022-11-03T04:57:12;20.73;;;16.80;;
40511;SDS011;26213;52.446;20.706;2022-11-03T04:59:38;22.50;;;13.32;;
40511;SDS011;26213;52.446;20.706;2022-11-03T05:02:15;17.58;;;10.73;;
40511;SDS011;26213;52.446;20.706;2022-11-03T05:04:43;18.80;;;14.65;;
40511;SDS011;26213;52.446;20.706;2022-11-03T05:09:55;32.88;;;25.45;;
40511;SDS011;26213;52.446;20.706;2022-11-03T05:12:20;23.63;;;19.50;;
40511;SDS011;26213;52.446;20.706;2022-11-03T05:14:46;21.15;;;15.60;;
40511;SDS011;26213;52.446;20.706;2022-11-03T05:17:22;19.83;;;11.88;;
40511;SDS011;26213;52.446;20.706;2022-11-03T05:19:50;25.73;;;18.30;;
40511;SDS011;26213;52.446;20.706;2022-11-03T05:22:22;32.53;;;21.98;;
40511;SDS011;26213;52.446;20.706;2022-11-03T05:24:50;40.17;;;32.28;;
40511;SDS011;26213;52.446;20.706;2022-11-03T05:27:20;41.90;;;33.85;;
40511;SDS011;26213;52.446;20.706;2022-11-03T05:29:47;57.95;;;39.30;;
40511;SDS011;26213;52.446;20.706;2022-11-03T05:32:15;47.77;;;37.73;;
40511;SDS011;26213;52.446;20.706;2022-11-03T05:34:48;53.58;;;43.40;;
40511;SDS011;26213;52.446;20.706;2022-11-03T05:39:54;48.45;;;38.58;;
40511;SDS011;26213;52.446;20.706;2022-11-03T05:42:28;56.03;;;40.95;;
40511;SDS011;26213;52.446;20.706;2022-11-03T05:45:02;65.25;;;49.60;;
40511;SDS011;26213;52.446;20.706;2022-11-03T05:47:35;71.78;;;52.97;;
40511;SDS011;26213;52.446;20.706;2022-11-03T05:50:15;83.80;;;58.60;;
40511;SDS011;26213;52.446;20.706;2022-11-03T05:52:43;112.90;;;74.43;;
40511;SDS011;26213;52.446;20.706;2022-11-03T05:55:20;110.25;;;71.90;;
40511;SDS011;26213;52.446;20.706;2022-11-03T05:57:51;107.90;;;72.30;;
40511;SDS011;26213;52.446;20.706;2022-11-03T06:00:39;79.65;;;53.85;;
40511;SDS011;26213;52.446;20.706;2022-11-03T06:03:04;55.85;;;36.90;;
40511;SDS011;26213;52.446;20.706;2022-11-03T06:05:31;35.05;;;25.02;;
40511;SDS011;26213;52.446;20.706;2022-11-03T06:07:59;37.90;;;25.50;;
40511;SDS011;26213;52.446;20.706;2022-11-03T06:10:30;30.17;;;21.33;;
40511;SDS011;26213;52.446;20.706;2022-11-03T06:13:00;46.30;;;31.92;;
40511;SDS011;26213;52.446;20.706;2022-11-03T06:15:32;33.92;;;20.92;;
40511;SDS011;26213;52.446;20.706;2022-11-03T06:17:59;39.03;;;23.70;;
40511;SDS011;26213;52.446;20.706;2022-11-03T06:22:52;36.70;;;20.95;;
40511;SDS011;26213;52.446;20.706;2022-11-03T06:27:50;42.65;;;29.48;;
40511;SDS011;26213;52.446;20.706;2022-11-03T06:30:29;73.28;;;40.65;;
40511;SDS011;26213;52.446;20.706;2022-11-03T06:33:12;116.57;;;56.55;;
40511;SDS011;26213;52.446;20.706;2022-11-03T06:35:39;76.88;;;42.38;;
40511;SDS011;26213;52.446;20.706;2022-11-03T06:38:07;43.78;;;24.52;;
40511;SDS011;26213;52.446;20.706;2022-11-03T06:40:46;39.95;;;22.45;;
40511;SDS011;26213;52.446;20.706;2022-11-03T06:43:15;33.20;;;16.00;;
40511;SDS011;26213;52.446;20.706;2022-11-03T06:45:47;33.63;;;16.17;;
40511;SDS011;26213;52.446;20.706;2022-11-03T06:48:15;54.47;;;35.03;;
40511;SDS011;26213;52.446;20.706;2022-11-03T06:50:46;27.38;;;15.60;;
40511;SDS011;26213;52.446;20.706;2022-11-03T06:53:12;27.83;;;12.75;;
40511;SDS011;26213;52.446;20.706;2022-11-03T06:55:44;35.88;;;15.68;;
40511;SDS011;26213;52.446;20.706;2022-11-03T06:58:17;34.60;;;17.15;;
40511;SDS011;26213;52.446;20.706;2022-11-03T07:00:46;26.80;;;12.73;;
40511;SDS011;26213;52.446;20.706;2022-11-03T07:03:23;26.92;;;12.88;;
40511;SDS011;26213;52.446;20.706;2022-11-03T07:05:54;30.13;;;12.05;;
40511;SDS011;26213;52.446;20.706;2022-11-03T07:08:22;28.10;;;13.65;;
40511;SDS011;26213;52.446;20.706;2022-11-03T07:10:57;32.75;;;14.05;;
40511;SDS011;26213;52.446;20.706;2022-11-03T07:13:27;21.80;;;10.48;;
40511;SDS011;26213;52.446;20.706;2022-11-03T07:15:55;25.88;;;13.13;;
40511;SDS011;26213;52.446;20.706;2022-11-03T07:18:25;25.50;;;13.15;;
40511;SDS011;26213;52.446;20.706;2022-11-03T07:20:52;27.15;;;14.48;;
40511;SDS011;26213;52.446;20.706;2022-11-03T07:23:20;25.00;;;15.57;;
40511;SDS011;26213;52.446;20.706;2022-11-03T07:25:49;27.40;;;17.00;;
40511;SDS011;26213;52.446;20.706;2022-11-03T07:28:18;27.55;;;13.45;;
40511;SDS011;26213;52.446;20.706;2022-11-03T07:31:12;22.98;;;11.23;;
40511;SDS011;26213;52.446;20.706;2022-11-03T07:33:40;41.15;;;21.00;;
40511;SDS011;26213;52.446;20.706;2022-11-03T07:36:06;28.67;;;17.02;;
40511;SDS011;26213;52.446;20.706;2022-11-03T07:38:34;24.27;;;13.30;;
40511;SDS011;26213;52.446;20.706;2022-11-03T07:40:59;24.23;;;11.80;;
40511;SDS011;26213;52.446;20.706;2022-11-03T07:43:29;23.38;;;12.00;;
40511;SDS011;26213;52.446;20.706;2022-11-03T07:45:56;21.05;;;10.25;;
40511;SDS011;26213;52.446;20.706;2022-11-03T07:51:23;17.85;;;9.15;;
40511;SDS011;26213;52.446;20.706;2022-11-03T07:56:35;19.83;;;10.07;;
40511;SDS011;26213;52.446;20.706;2022-11-03T07:59:10;16.77;;;9.57;;
40511;SDS011;26213;52.446;20.706;2022-11-03T08:01:44;17.00;;;10.43;;
40511;SDS011;26213;52.446;20.706;2022-11-03T08:04:16;15.23;;;9.25;;
40511;SDS011;26213;52.446;20.706;2022-11-03T08:06:44;19.02;;;10.27;;
40511;SDS011;26213;52.446;20.706;2022-11-03T08:09:09;23.95;;;9.30;;
40511;SDS011;26213;52.446;20.706;2022-11-03T08:11:35;19.80;;;9.35;;
40511;SDS011;26213;52.446;20.706;2022-11-03T08:14:00;16.23;;;9.45;;
40511;SDS011;26213;52.446;20.706;2022-11-03T08:16:26;19.65;;;7.82;;
40511;SDS011;26213;52.446;20.706;2022-11-03T08:18:51;21.73;;;9.80;;
40511;SDS011;26213;52.446;20.706;2022-11-03T08:21:17;20.33;;;11.27;;
40511;SDS011;26213;52.446;20.706;2022-11-03T08:23:42;14.60;;;9.43;;
40511;SDS011;26213;52.446;20.706;2022-11-03T08:26:08;16.35;;;9.50;;
40511;SDS011;26213;52.446;20.706;2022-11-03T08:28:33;16.90;;;9.00;;
40511;SDS011;26213;52.446;20.706;2022-11-03T08:30:59;19.95;;;9.30;;
40511;SDS011;26213;52.446;20.706;2022-11-03T08:33:29;18.05;;;8.75;;
40511;SDS011;26213;52.446;20.706;2022-11-03T08:35:55;14.45;;;7.97;;
40511;SDS011;26213;52.446;20.706;2022-11-03T08:38:21;29.17;;;10.93;;
40511;SDS011;26213;52.446;20.706;2022-11-03T08:40:46;18.70;;;8.63;;
40511;SDS011;26213;52.446;20.706;2022-11-03T08:43:12;25.13;;;11.48;;
40511;SDS011;26213;52.446;20.706;2022-11-03T08:45:37;24.58;;;11.93;;
40511;SDS011;26213;52.446;20.706;2022-11-03T08:48:03;20.55;;;11.30;;
40511;SDS011;26213;52.446;20.706;2022-11-03T08:50:29;15.13;;;8.23;;
40511;SDS011;26213;52.446;20.706;2022-11-03T08:52:54;23.88;;;13.10;;
40511;SDS011;26213;52.446;20.706;2022-11-03T08:55:20;22.35;;;9.13;;
40511;SDS011;26213;52.446;20.706;2022-11-03T08:57:45;17.33;;;8.18;;
40511;SDS011;26213;52.446;20.706;2022-11-03T09:00:11;14.60;;;8.40;;
40511;SDS011;26213;52.446;20.706;2022-11-03T09:02:37;22.63;;;8.27;;
40511;SDS011;26213;52.446;20.706;2022-11-03T09:05:03;19.10;;;7.85;;
40511;SDS011;26213;52.446;20.706;2022-11-03T09:07:30;15.05;;;8.23;;
40511;SDS011;26213;52.446;20.706;2022-11-03T09:09:55;16.27;;;8.20;;
40511;SDS011;26213;52.446;20.706;2022-11-03T09:12:21;12.43;;;7.00;;
40511;SDS011;26213;52.446;20.706;2022-11-03T09:14:46;10.43;;;6.10;;
40511;SDS011;26213;52.446;20.706;2022-11-03T09:17:12;9.80;;;5.43;;
40511;SDS011;26213;52.446;20.706;2022-11-03T09:19:37;23.27;;;8.40;;
40511;SDS011;26213;52.446;20.706;2022-11-03T09:22:03;12.52;;;5.95;;
40511;SDS011;26213;52.446;20.706;2022-11-03T09:24:28;12.55;;;6.53;;
40511;SDS011;26213;52.446;20.706;2022-11-03T09:26:54;19.33;;;9.25;;
40511;SDS011;26213;52.446;20.706;2022-11-03T09:29:20;18.02;;;8.57;;
40511;SDS011;26213;52.446;20.706;2022-11-03T09:31:45;12.27;;;7.60;;
40511;SDS011;26213;52.446;20.706;2022-11-03T09:34:11;12.32;;;5.85;;
40511;SDS011;26213;52.446;20.706;2022-11-03T09:36:36;12.57;;;4.78;;
40511;SDS011;26213;52.446;20.706;2022-11-03T09:39:02;15.18;;;5.97;;
40511;SDS011;26213;52.446;20.706;2022-11-03T09:41:28;12.75;;;6.30;;
40511;SDS011;26213;52.446;20.706;2022-11-03T09:43:55;13.38;;;7.50;;
40511;SDS011;26213;52.446;20.706;2022-11-03T09:46:21;18.25;;;7.32;;
40511;SDS011;26213;52.446;20.706;2022-11-03T09:48:46;16.23;;;7.35;;
40511;SDS011;26213;52.446;20.706;2022-11-03T09:51:14;16.25;;;6.40;;
40511;SDS011;26213;52.446;20.706;2022-11-03T09:53:43;12.60;;;6.65;;
40511;SDS011;26213;52.446;20.706;2022-11-03T09:56:09;11.63;;;6.22;;
40511;SDS011;26213;52.446;20.706;2022-11-03T09:58:35;13.88;;;6.28;;
40511;SDS011;26213;52.446;20.706;2022-11-03T10:01:00;11.70;;;6.28;;
40511;SDS011;26213;52.446;20.706;2022-11-03T10:03:26;15.82;;;6.60;;
40511;SDS011;26213;52.446;20.706;2022-11-03T10:05:51;23.40;;;8.57;;
40511;SDS011;26213;52.446;20.706;2022-11-03T10:08:24;18.90;;;5.97;;
40511;SDS011;26213;52.446;20.706;2022-11-03T10:10:51;12.88;;;5.70;;
40511;SDS011;26213;52.446;20.706;2022-11-03T10:13:21;11.15;;;4.90;;
40511;SDS011;26213;52.446;20.706;2022-11-03T10:15:51;16.30;;;5.75;;
40511;SDS011;26213;52.446;20.706;2022-11-03T10:18:16;11.57;;;4.85;;
40511;SDS011;26213;52.446;20.706;2022-11-03T10:20:43;10.68;;;4.88;;
40511;SDS011;26213;52.446;20.706;2022-11-03T10:23:08;16.90;;;5.32;;
40511;SDS011;26213;52.446;20.706;2022-11-03T10:30:43;20.40;;;5.03;;
40511;SDS011;26213;52.446;20.706;2022-11-03T10:35:58;13.73;;;4.43;;
40511;SDS011;26213;52.446;20.706;2022-11-03T10:38:26;15.20;;;4.25;;
40511;SDS011;26213;52.446;20.706;2022-11-03T10:40:56;16.65;;;4.55;;
40511;SDS011;26213;52.446;20.706;2022-11-03T10:43:36;11.90;;;4.10;;
40511;SDS011;26213;52.446;20.706;2022-11-03T10:46:15;12.95;;;4.30;;
40511;SDS011;26213;52.446;20.706;2022-11-03T10:48:45;15.45;;;4.80;;
40511;SDS011;26213;52.446;20.706;2022-11-03T10:51:30;10.82;;;3.25;;
40511;SDS011;26213;52.446;20.706;2022-11-03T10:53:59;11.05;;;3.85;;
40511;SDS011;26213;52.446;20.706;2022-11-03T10:56:25;12.18;;;3.63;;
40511;SDS011;26213;52.446;20.706;2022-11-03T10:58:51;11.88;;;3.70;;
40511;SDS011;26213;52.446;20.706;2022-11-03T11:01:17;22.75;;;5.47;;
40511;SDS011;26213;52.446;20.706;2022-11-03T11:03:43;9.15;;;2.70;;
40511;SDS011;26213;52.446;20.706;2022-11-03T11:06:18;14.98;;;4.35;;
40511;SDS011;26213;52.446;20.706;2022-11-03T11:08:49;10.65;;;3.75;;
40511;SDS011;26213;52.446;20.706;2022-11-03T11:11:18;9.20;;;3.08;;
40511;SDS011;26213;52.446;20.706;2022-11-03T11:13:43;8.13;;;3.45;;
40511;SDS011;26213;52.446;20.706;2022-11-03T11:19:14;18.42;;;3.55;;
40511;SDS011;26213;52.446;20.706;2022-11-03T11:24:08;10.23;;;3.40;;
40511;SDS011;26213;52.446;20.706;2022-11-03T11:26:35;11.43;;;3.40;;
40511;SDS011;26213;52.446;20.706;2022-11-03T11:31:32;16.77;;;4.43;;
40511;SDS011;26213;52.446;20.706;2022-11-03T11:36:37;16.95;;;3.78;;
40511;SDS011;26213;52.446;20.706;2022-11-03T11:47:17;16.30;;;3.35;;
40511;SDS011;26213;52.446;20.706;2022-11-03T11:50:10;9.80;;;2.88;;
40511;SDS011;26213;52.446;20.706;2022-11-03T11:52:44;10.18;;;3.40;;
40511;SDS011;26213;52.446;20.706;2022-11-03T11:58:17;13.90;;;3.33;;
40511;SDS011;26213;52.446;20.706;2022-11-03T12:00:56;7.72;;;3.08;;
40511;SDS011;26213;52.446;20.706;2022-11-03T12:03:31;11.57;;;2.78;;
40511;SDS011;26213;52.446;20.706;2022-11-03T12:06:00;13.27;;;3.13;;
40511;SDS011;26213;52.446;20.706;2022-11-03T12:08:27;14.77;;;3.35;;
40511;SDS011;26213;52.446;20.706;2022-11-03T12:10:54;10.63;;;3.13;;
40511;SDS011;26213;52.446;20.706;2022-11-03T12:16:08;9.45;;;3.70;;
40511;SDS011;26213;52.446;20.706;2022-11-03T12:21:04;15.27;;;2.90;;
40511;SDS011;26213;52.446;20.706;2022-11-03T12:26:01;7.30;;;2.90;;
40511;SDS011;26213;52.446;20.706;2022-11-03T12:28:34;9.10;;;3.17;;
40511;SDS011;26213;52.446;20.706;2022-11-03T12:31:00;11.05;;;3.50;;
40511;SDS011;26213;52.446;20.706;2022-11-03T12:33:26;20.67;;;7.30;;
40511;SDS011;26213;52.446;20.706;2022-11-03T12:35:52;10.38;;;3.65;;
40511;SDS011;26213;52.446;20.706;2022-11-03T12:38:18;13.32;;;4.00;;
40511;SDS011;26213;52.446;20.706;2022-11-03T12:40:43;9.43;;;3.25;;
40511;SDS011;26213;52.446;20.706;2022-11-03T12:43:09;8.32;;;3.75;;
40511;SDS011;26213;52.446;20.706;2022-11-03T12:45:34;16.38;;;4.38;;
40511;SDS011;26213;52.446;20.706;2022-11-03T12:47:59;11.27;;;3.45;;
40511;SDS011;26213;52.446;20.706;2022-11-03T12:50:25;6.63;;;2.90;;
40511;SDS011;26213;52.446;20.706;2022-11-03T12:52:51;6.95;;;2.65;;
40511;SDS011;26213;52.446;20.706;2022-11-03T12:55:17;9.50;;;3.58;;
40511;SDS011;26213;52.446;20.706;2022-11-03T12:57:42;10.07;;;3.08;;
40511;SDS011;26213;52.446;20.706;2022-11-03T13:00:10;13.70;;;3.05;;
40511;SDS011;26213;52.446;20.706;2022-11-03T13:02:36;7.97;;;2.70;;
40511;SDS011;26213;52.446;20.706;2022-11-03T13:05:02;15.45;;;3.63;;
40511;SDS011;26213;52.446;20.706;2022-11-03T13:07:29;14.48;;;3.55;;
40511;SDS011;26213;52.446;20.706;2022-11-03T13:09:54;12.73;;;3.03;;
40511;SDS011;26213;52.446;20.706;2022-11-03T13:12:19;12.13;;;3.83;;
40511;SDS011;26213;52.446;20.706;2022-11-03T13:14:58;11.27;;;3.30;;
40511;SDS011;26213;52.446;20.706;2022-11-03T13:17:25;9.52;;;2.83;;
40511;SDS011;26213;52.446;20.706;2022-11-03T13:19:51;7.00;;;2.67;;
40511;SDS011;26213;52.446;20.706;2022-11-03T13:22:16;10.35;;;3.45;;
40511;SDS011;26213;52.446;20.706;2022-11-03T13:24:42;12.57;;;3.90;;
40511;SDS011;26213;52.446;20.706;2022-11-03T13:27:07;10.05;;;3.08;;
40511;SDS011;26213;52.446;20.706;2022-11-03T13:29:33;8.50;;;2.63;;
40511;SDS011;26213;52.446;20.706;2022-11-03T13:31:59;9.88;;;3.03;;
40511;SDS011;26213;52.446;20.706;2022-11-03T13:34:24;6.70;;;2.88;;
40511;SDS011;26213;52.446;20.706;2022-11-03T13:36:50;13.00;;;2.83;;
40511;SDS011;26213;52.446;20.706;2022-11-03T13:39:15;6.72;;;2.13;;
40511;SDS011;26213;52.446;20.706;2022-11-03T13:41:41;9.18;;;2.47;;
40511;SDS011;26213;52.446;20.706;2022-11-03T13:44:06;10.73;;;4.18;;
40511;SDS011;26213;52.446;20.706;2022-11-03T13:46:33;13.13;;;4.65;;
40511;SDS011;26213;52.446;20.706;2022-11-03T13:48:58;12.27;;;3.58;;
40511;SDS011;26213;52.446;20.706;2022-11-03T13:51:24;13.25;;;3.65;;
40511;SDS011;26213;52.446;20.706;2022-11-03T13:53:49;13.80;;;3.72;;
40511;SDS011;26213;52.446;20.706;2022-11-03T13:56:15;8.77;;;2.85;;
40511;SDS011;26213;52.446;20.706;2022-11-03T13:58:41;9.38;;;2.65;;
40511;SDS011;26213;52.446;20.706;2022-11-03T14:01:06;7.65;;;3.28;;
40511;SDS011;26213;52.446;20.706;2022-11-03T14:03:32;10.80;;;2.83;;
40511;SDS011;26213;52.446;20.706;2022-11-03T14:05:57;13.25;;;4.72;;
40511;SDS011;26213;52.446;20.706;2022-11-03T14:08:23;10.50;;;4.80;;
40511;SDS011;26213;52.446;20.706;2022-11-03T14:10:48;11.00;;;4.55;;
40511;SDS011;26213;52.446;20.706;2022-11-03T14:13:14;16.23;;;4.32;;
40511;SDS011;26213;52.446;20.706;2022-11-03T14:15:39;8.70;;;3.30;;
40511;SDS011;26213;52.446;20.706;2022-11-03T14:18:05;12.55;;;4.07;;
40511;SDS011;26213;52.446;20.706;2022-11-03T14:20:30;9.25;;;3.30;;
40511;SDS011;26213;52.446;20.706;2022-11-03T14:22:56;9.25;;;3.05;;
40511;SDS011;26213;52.446;20.706;2022-11-03T14:25:21;12.85;;;3.15;;
40511;SDS011;26213;52.446;20.706;2022-11-03T14:27:47;10.70;;;5.13;;
40511;SDS011;26213;52.446;20.706;2022-11-03T14:30:12;15.75;;;8.27;;
40511;SDS011;26213;52.446;20.706;2022-11-03T14:32:38;26.08;;;10.95;;
40511;SDS011;26213;52.446;20.706;2022-11-03T14:35:04;30.92;;;13.82;;
40511;SDS011;26213;52.446;20.706;2022-11-03T14:37:30;24.17;;;8.32;;
40511;SDS011;26213;52.446;20.706;2022-11-03T14:39:55;19.40;;;6.35;;
40511;SDS011;26213;52.446;20.706;2022-11-03T14:42:21;15.93;;;5.28;;
40511;SDS011;26213;52.446;20.706;2022-11-03T14:44:46;22.95;;;5.35;;
40511;SDS011;26213;52.446;20.706;2022-11-03T14:47:13;15.65;;;5.53;;
40511;SDS011;26213;52.446;20.706;2022-11-03T14:49:39;21.42;;;8.10;;
40511;SDS011;26213;52.446;20.706;2022-11-03T14:52:05;22.52;;;8.95;;
40511;SDS011;26213;52.446;20.706;2022-11-03T14:54:31;13.18;;;5.35;;
40511;SDS011;26213;52.446;20.706;2022-11-03T14:56:57;18.65;;;8.77;;
40511;SDS011;26213;52.446;20.706;2022-11-03T14:59:22;24.33;;;10.95;;
40511;SDS011;26213;52.446;20.706;2022-11-03T15:01:48;33.72;;;16.90;;
40511;SDS011;26213;52.446;20.706;2022-11-03T15:04:15;37.72;;;21.20;;
40511;SDS011;26213;52.446;20.706;2022-11-03T15:06:41;46.15;;;23.75;;
40511;SDS011;26213;52.446;20.706;2022-11-03T15:09:07;44.67;;;26.20;;
40511;SDS011;26213;52.446;20.706;2022-11-03T15:11:33;45.13;;;24.35;;
40511;SDS011;26213;52.446;20.706;2022-11-03T15:13:59;64.75;;;28.25;;
40511;SDS011;26213;52.446;20.706;2022-11-03T15:16:24;67.18;;;28.65;;
40511;SDS011;26213;52.446;20.706;2022-11-03T15:18:50;51.55;;;25.33;;
40511;SDS011;26213;52.446;20.706;2022-11-03T15:21:16;48.58;;;23.35;;
40511;SDS011;26213;52.446;20.706;2022-11-03T15:23:41;41.65;;;19.38;;
40511;SDS011;26213;52.446;20.706;2022-11-03T15:26:07;44.92;;;20.33;;
40511;SDS011;26213;52.446;20.706;2022-11-03T15:28:32;38.40;;;19.00;;
40511;SDS011;26213;52.446;20.706;2022-11-03T15:30:58;37.47;;;18.33;;
40511;SDS011;26213;52.446;20.706;2022-11-03T15:33:24;31.20;;;16.27;;
40511;SDS011;26213;52.446;20.706;2022-11-03T15:35:52;42.55;;;21.42;;
40511;SDS011;26213;52.446;20.706;2022-11-03T15:38:17;60.70;;;31.98;;
40511;SDS011;26213;52.446;20.706;2022-11-03T15:40:43;49.65;;;28.05;;
40511;SDS011;26213;52.446;20.706;2022-11-03T15:43:09;50.85;;;26.45;;
40511;SDS011;26213;52.446;20.706;2022-11-03T15:45:34;44.15;;;25.58;;
40511;SDS011;26213;52.446;20.706;2022-11-03T15:48:00;48.30;;;24.02;;